Date,TemperatureHighF,TemperatureAvgF,TemperatureLowF,DewpointHighF,DewpointAvgF,DewpointLowF,HumidityHigh,HumidityAvg,HumidityLow,PressureMaxIn,PressureMinIn,WindSpeedMaxMPH,WindSpeedAvgMPH,GustSpeedMaxMPH,PrecipitationSumIn
2012-1-1,46,9,45,39,-71,-100,78,15,72,30.24,29.96,16,-791,0,0.01
2012-1-2,48,4,46,45,-88,-100,92,8,89,30.12,29.71,3,-915,0,0.04
2012-1-3,-200,0,200,-100,-100,-100,0,0,100,30.18,29.97,0,-999,0,0.00
2012-1-4,-200,0,200,-100,-100,-100,0,0,100,30.05,29.85,0,-999,0,0.00
2012-1-5,-200,0,200,-100,-100,-100,0,0,100,30.32,30.06,0,-999,0,0.00
2012-1-6,-200,0,200,-100,-100,-100,0,0,100,30.31,30.19,0,-999,0,0.00
2012-1-7,-200,0,200,-100,-100,-100,0,0,100,30.37,30.27,0,-999,0,0.00
2012-1-8,-200,0,200,-100,-100,-100,0,0,100,30.30,30.12,0,-999,0,0.00
2012-1-9,-200,0,200,-100,-100,-100,0,0,100,30.27,30.10,0,-999,0,0.00
2012-1-10,44,13,33,38,-56,-100,95,26,68,30.52,30.27,11,-672,0,0.01
2012-1-11,42,14,40,34,-54,-100,80,25,66,30.52,30.35,17,-651,0,0.00
2012-1-12,44,13,38,38,-57,-100,83,25,73,30.35,30.25,7,-683,0,0.00
2012-1-13,43,10,38,37,-66,-100,90,20,75,30.30,30.00,5,-751,0,0.00
2012-1-14,41,3,38,38,-91,-100,92,6,83,29.98,29.85,5,-934,0,0.00
2012-1-15,39,10,32,33,-64,-100,96,23,75,30.05,29.93,4,-722,0,0.16
2012-1-16,38,4,34,33,-84,-100,90,10,81,30.05,29.87,5,-879,0,0.01
2012-1-17,35,5,31,31,-80,-100,88,13,81,29.91,29.75,3,-840,0,0.23
2012-1-18,-200,0,200,-100,-100,-100,0,0,100,29.90,29.62,0,-999,0,0.00
2012-1-19,-200,0,200,-100,-100,-100,0,0,100,29.75,29.54,0,-999,0,0.00
2012-1-20,-200,0,200,-100,-100,-100,0,0,100,29.69,28.90,0,-999,0,0.00
2012-1-21,42,1,41,40,-97,-100,94,2,93,29.76,28.89,3,-977,0,0.01
2012-1-22,-200,0,200,-100,-100,-100,0,0,100,29.76,29.21,0,-999,0,0.00
2012-1-23,48,14,41,43,-56,-100,95,26,77,29.93,29.73,5,-690,0,0.00
2012-1-24,-200,0,200,-100,-100,-100,0,0,100,29.89,29.43,0,-999,0,0.00
2012-1-25,-200,0,200,-100,-100,-100,0,0,100,30.18,29.85,0,-999,0,0.00
2012-1-26,40,2,38,37,-91,-100,90,6,85,30.55,29.83,11,-935,0,0.00
2012-1-27,46,15,38,35,-54,-100,81,24,62,30.57,30.45,6,-655,0,0.00
2012-1-28,-200,0,200,-100,-100,-100,0,0,100,30.45,29.92,0,-999,0,0.00
2012-1-29,-200,0,200,-100,-100,-100,0,0,100,29.92,29.71,0,-999,0,0.00
2012-1-30,47,8,45,45,-75,-100,91,15,86,30.01,29.83,6,-823,0,0.00
2012-1-31,-200,0,200,-100,-100,-100,0,0,100,29.97,29.83,0,-999,0,0.00
2012-2-1,49,16,42,43,-51,-100,97,28,71,30.40,29.81,9,-655,0,0.00
2012-2-2,46,11,44,41,-67,-100,88,19,73,30.43,30.20,18,-757,0,0.00
2012-2-3,51,16,43,40,-53,-100,87,23,59,30.19,30.03,11,-660,0,0.00
2012-2-4,51,19,42,40,-46,-100,86,26,52,30.16,30.07,13,-597,0,0.00
2012-2-5,52,19,42,40,-46,-100,84,26,48,30.22,30.09,11,-600,0,0.00
2012-2-6,51,18,42,38,-50,-100,87,24,51,30.08,29.84,18,-628,0,0.00
2012-2-7,55,18,46,34,-54,-100,60,17,42,29.92,29.79,12,-650,0,0.00
2012-2-8,52,5,46,49,-84,-100,95,10,88,30.21,29.92,4,-892,0,0.02
2012-2-9,-200,0,200,-100,-100,-100,0,0,100,30.21,29.98,0,-999,0,0.00
2012-2-10,-200,0,200,-100,-100,-100,0,0,100,30.00,29.82,0,-999,0,0.00
2012-2-11,50,14,48,46,-59,-100,91,24,83,30.07,29.94,13,-715,0,0.01
2012-2-12,-200,0,200,-100,-100,-100,0,0,100,30.05,29.88,0,-999,0,0.00
2012-2-13,47,17,38,44,-45,-100,97,36,87,30.01,29.91,4,-612,0,0.00
2012-2-14,44,13,41,40,-59,-100,91,25,81,30.16,29.85,6,-701,0,0.00
2012-2-15,46,11,44,41,-64,-100,87,22,83,30.32,30.15,4,-742,0,0.00
2012-2-16,-200,0,200,-100,-100,-100,0,0,100,30.22,30.12,0,-999,0,0.00
2012-2-17,45,2,45,42,-93,-100,90,4,88,30.19,29.73,12,-951,0,0.03
2012-2-18,46,9,45,43,-72,-100,92,18,86,30.03,29.72,5,-801,0,0.00
2012-2-19,47,25,40,39,-20,-100,90,48,67,30.05,29.82,11,-420,0,0.02
2012-2-20,43,42,41,42,40,38,97,92,85,29.95,29.80,13,3,0,0.16
2012-2-21,48,46,42,47,46,42,98,96,96,30.02,29.93,7,1,0,0.24
2012-2-22,47,44,42,43,40,38,90,84,81,30.28,30.09,10,2,0,0.25
2012-2-23,48,43,38,42,38,36,94,82,63,30.35,30.21,5,0,0,0.11
2012-2-24,45,42,38,43,40,36,96,93,89,30.20,29.51,12,2,0,1.71
2012-2-25,46,41,37,39,33,29,94,74,54,30.13,29.56,11,2,0,0.03
2012-2-26,43,37,30,32,29,23,92,74,46,30.21,30.11,17,3,0,0.00
2012-2-27,40,37,34,30,25,20,82,64,51,30.22,29.91,17,6,0,0.00
2012-2-28,42,39,36,38,34,27,92,83,71,29.91,29.33,20,5,0,0.33
2012-2-29,45,38,34,39,35,32,95,89,76,29.73,29.37,12,2,0,0.28
2012-3-1,49,40,35,39,36,33,94,86,63,30.27,29.73,4,1,0,0.01
2012-3-2,44,42,40,42,40,37,97,91,84,30.32,30.26,8,1,0,0.12
2012-3-3,50,48,42,48,46,41,98,93,91,30.31,30.24,10,2,0,0.19
2012-3-4,49,47,45,46,44,43,93,91,87,30.29,29.85,14,2,0,0.55
2012-3-5,46,42,37,44,35,24,95,76,56,29.87,29.68,20,2,0,0.98
2012-3-6,43,36,29,28,25,20,85,65,43,30.30,29.86,15,4,0,0.00
2012-3-7,44,39,32,38,34,28,89,83,76,30.42,30.30,6,1,0,0.00
2012-3-8,51,43,39,43,38,35,89,81,67,30.36,30.09,16,6,0,0.00
2012-3-9,49,45,38,46,42,37,96,91,82,30.15,29.91,7,2,0,1.19
2012-3-10,47,42,37,42,39,36,97,91,74,29.90,29.52,11,2,0,0.61
2012-3-11,44,40,34,40,36,33,94,86,65,29.63,29.48,14,2,0,0.60
2012-3-12,42,38,34,38,35,33,95,92,85,29.49,29.11,15,3,0,1.86
2012-3-13,44,36,32,39,34,30,96,91,75,29.77,29.29,5,1,0,0.16
2012-3-14,46,40,36,42,38,33,95,91,84,29.75,29.51,13,3,0,0.52
2012-3-15,51,46,38,49,43,37,98,90,81,29.58,29.29,17,4,0,1.89
2012-3-16,50,42,36,43,38,35,96,87,63,29.60,29.40,11,2,0,0.37
2012-3-17,50,42,34,40,36,30,96,81,57,29.62,29.38,9,2,0,0.12
2012-3-18,45,38,32,36,32,27,95,82,52,29.79,29.60,5,1,0,0.02
2012-3-19,44,37,31,38,33,27,92,84,53,29.81,29.45,9,3,0,0.19
2012-3-20,44,40,35,41,37,33,95,87,77,29.87,29.35,17,3,0,0.70
2012-3-21,46,39,33,36,34,31,94,80,59,29.95,29.78,13,4,0,0.04
2012-3-22,42,37,31,39,35,29,95,92,87,29.97,29.79,10,2,0,0.30
2012-3-23,50,40,30,41,35,29,97,83,61,30.04,29.91,11,4,0,0.01
2012-3-24,53,46,38,38,36,32,87,68,44,30.03,29.86,18,6,0,0.00
2012-3-25,55,45,34,43,38,32,94,78,45,29.86,29.64,15,4,0,0.00
2012-3-26,53,47,44,44,42,37,96,82,57,29.75,29.63,10,2,0,0.10
2012-3-27,51,47,45,47,44,42,96,90,81,29.62,29.39,13,3,0,0.47
2012-3-28,48,45,42,45,42,39,94,89,83,29.64,29.42,14,3,0,1.56
2012-3-29,48,44,41,43,41,40,96,91,80,29.52,29.38,16,2,0,1.29
2012-3-30,46,42,37,43,40,35,96,92,82,29.72,29.41,7,1,0,0.27
2012-3-31,43,40,36,40,37,34,96,91,80,29.67,29.38,20,7,0,0.86
2012-4-1,49,43,38,44,40,36,95,90,77,30.09,29.41,11,2,0,0.20
2012-4-2,56,47,41,44,42,39,95,82,56,30.09,29.77,16,3,0,0.20
2012-4-3,48,42,35,44,39,34,96,91,81,29.95,29.69,15,1,0,1.32
2012-4-4,46,41,34,43,38,33,100,91,80,30.08,29.93,5,1,0,0.07
2012-4-5,48,41,36,42,38,34,96,88,71,30.14,30.07,8,1,0,0.06
2012-4-6,52,42,36,42,38,34,95,85,61,30.27,30.13,9,2,0,0.01
2012-4-7,53,44,33,41,36,31,100,76,45,30.26,30.12,16,6,0,0.02
2012-4-8,60,52,47,41,36,29,75,57,32,30.14,29.96,14,6,0,0.00
2012-4-9,58,53,47,47,40,33,90,65,44,29.96,29.84,10,2,0,0.00
2012-4-10,58,49,43,48,45,42,96,86,66,29.82,29.69,5,1,0,0.00
2012-4-11,52,49,45,47,46,43,94,87,78,29.75,29.63,12,2,0,0.00
2012-4-12,51,45,39,46,43,38,97,92,79,29.80,29.65,6,2,0,0.38
2012-4-13,52,44,35,46,41,34,98,90,75,29.89,29.80,11,3,0,0.01
2012-4-14,58,48,40,47,43,38,95,82,61,30.14,29.89,14,3,0,0.00
2012-4-15,54,49,45,46,43,37,92,81,55,30.15,29.94,9,2,0,0.01
2012-4-16,52,47,41,49,44,38,96,90,75,30.16,29.77,10,1,0,0.56
2012-4-17,46,43,39,43,41,37,95,90,83,30.18,29.90,8,2,0,0.17
2012-4-18,51,46,42,48,44,41,97,92,81,30.05,29.85,10,2,0,0.58
2012-4-19,50,45,36,50,43,36,98,94,84,30.05,29.89,10,2,0,1.03
2012-4-20,54,47,38,47,42,36,97,83,59,30.21,29.99,14,3,0,0.15
2012-4-21,59,48,35,44,40,34,96,75,51,30.18,29.97,13,4,0,0.01
2012-4-22,62,54,47,51,47,41,94,77,56,29.98,29.87,6,1,0,0.00
2012-4-23,63,54,51,54,50,48,96,86,73,29.91,29.83,11,2,0,0.00
2012-4-24,55,50,48,49,47,47,100,90,74,29.88,29.70,8,1,0,0.76
2012-4-25,52,50,48,51,49,47,98,95,90,29.70,29.56,5,1,0,1.49
2012-4-26,56,48,42,47,44,38,97,85,53,29.97,29.57,13,1,0,0.19
2012-4-27,54,46,40,45,43,39,96,88,63,30.23,29.98,12,1,0,0.07
2012-4-28,53,49,46,49,46,43,97,90,81,30.23,30.18,6,1,0,0.09
2012-4-29,52,49,46,49,47,45,97,94,85,30.19,29.74,6,1,0,0.11
2012-4-30,51,48,44,48,45,43,96,91,80,29.86,29.57,12,1,0,0.39
2012-5-1,50,45,41,45,42,39,94,88,75,29.93,29.86,7,1,0,0.25
2012-5-2,48,45,40,45,42,38,96,88,76,29.95,29.75,10,2,0,0.16
2012-5-3,54,48,43,48,44,42,98,88,72,29.91,29.59,12,2,0,0.22
2012-5-4,54,47,42,47,41,37,95,83,57,30.33,29.91,12,1,0,0.33
2012-6-28,60,56,52,55,52,48,96,87,64,29.95,29.88,4,0,0,0.20
2012-6-29,60,56,52,58,55,51,97,95,89,30.02,29.93,6,1,0,0.15
2012-6-30,60,56,54,56,55,53,98,95,82,29.97,29.91,7,1,0,0.37
2012-7-1,58,55,51,53,51,48,95,86,76,30.06,29.96,12,2,0,0.01
2012-7-2,55,52,50,52,50,48,97,92,84,30.03,29.83,3,0,0,0.33
2012-7-3,59,54,51,54,51,49,98,89,74,30.12,29.79,9,1,0,0.50
2012-7-4,61,54,48,52,49,46,96,84,61,30.11,29.97,12,2,0,0.00
2012-7-5,63,54,45,54,50,43,95,84,66,30.02,29.97,12,3,0,0.00
2012-7-6,62,56,50,55,51,48,96,83,67,30.13,30.01,19,3,0,0.00
2012-7-7,64,56,48,55,52,47,96,86,72,30.14,30.04,11,1,0,0.00
2012-7-8,59,56,54,54,53,52,92,88,82,30.05,29.99,3,0,0,0.00
2012-7-9,62,57,54,54,52,51,92,85,73,30.13,30.02,13,2,0,0.00
2012-7-10,64,58,53,58,54,51,95,87,78,30.17,30.06,15,2,0,0.00
2012-7-11,62,56,52,56,54,51,97,92,80,30.08,29.97,10,2,0,0.00
2012-7-12,63,56,52,57,54,51,98,93,80,29.98,29.94,9,2,0,0.00
2012-7-13,67,58,54,58,55,53,97,90,74,30.01,29.91,10,2,0,0.00
2012-7-14,64,57,53,59,55,53,99,92,81,29.95,29.89,10,2,0,0.00
2012-7-15,64,59,56,57,54,53,94,85,75,29.93,29.84,8,2,0,0.02
2012-7-16,66,58,53,59,55,52,98,89,74,29.89,29.78,11,2,0,0.01
2012-7-17,63,57,52,57,54,51,98,91,79,29.89,29.77,10,2,0,0.00
2012-7-18,65,59,56,58,55,54,93,87,76,30.04,29.89,11,2,0,0.00
2012-7-19,66,60,56,58,56,54,94,87,76,30.04,29.90,11,2,0,0.00
2012-7-20,64,59,54,60,56,53,97,91,82,30.14,29.92,9,2,0,0.12
2012-7-21,64,59,55,57,55,53,97,87,72,30.18,30.06,7,1,0,0.10
2012-7-22,60,56,52,55,53,50,95,90,79,30.13,30.02,11,1,0,0.06
2012-7-23,60,56,52,55,53,51,97,91,83,30.22,30.11,9,1,0,0.00
2012-7-24,62,55,52,55,53,51,97,92,79,30.17,30.00,9,2,0,0.00
2012-7-25,66,54,49,58,52,48,97,93,77,30.01,29.92,7,2,0,0.00
2012-7-26,61,55,51,56,53,50,99,93,81,29.97,29.91,17,3,0,0.01
2012-7-27,59,56,54,55,54,52,94,91,83,30.10,29.93,13,2,0,0.00
2012-7-28,64,58,54,57,54,51,96,88,78,30.15,30.09,9,1,0,0.00
2012-7-29,63,58,52,55,53,50,95,84,73,30.15,30.11,13,2,0,0.00
2012-7-30,60,56,51,56,53,49,94,88,82,30.15,30.10,9,1,0,0.00
2012-7-31,64,57,50,57,53,48,95,85,71,30.18,30.13,11,2,0,0.00
2012-8-1,61,58,53,54,53,51,94,84,74,30.22,30.16,11,1,0,0.00
2012-8-2,62,58,54,57,55,52,97,91,84,30.17,30.10,14,1,0,0.00
2012-8-3,68,57,50,58,54,50,98,88,68,30.13,29.95,4,0,0,0.00
2012-8-4,73,62,53,60,56,52,96,81,61,29.95,29.81,6,1,0,0.00
2012-8-5,66,59,54,61,56,53,97,89,77,29.95,29.83,6,2,0,0.00
2012-8-6,66,62,57,61,59,56,97,91,84,30.09,29.95,12,3,0,0.00
2012-8-7,65,61,55,60,58,54,98,89,78,30.07,30.01,9,2,0,0.00
2012-8-8,64,59,54,59,57,52,97,92,81,30.21,30.05,6,0,0,0.01
2012-8-9,65,58,53,57,55,52,99,88,71,30.20,30.09,13,2,0,0.00
2012-8-10,66,55,51,59,53,50,97,93,76,30.12,30.04,7,1,0,0.00
2012-8-11,67,56,50,59,53,50,99,92,73,30.08,29.97,7,1,0,0.00
2012-8-12,71,58,51,59,55,50,97,88,64,29.98,29.92,6,1,0,0.01
2012-8-13,68,59,52,58,55,51,97,86,65,30.03,29.94,11,2,0,0.01
2012-8-14,68,60,55,61,57,54,97,91,77,29.99,29.90,14,2,0,0.00
2012-8-15,75,62,51,58,55,50,98,82,50,29.96,29.86,6,1,0,0.00
2012-8-16,70,66,59,60,58,55,87,73,62,29.90,29.86,6,2,0,0.00
2012-8-17,62,57,53,58,55,52,97,92,83,29.97,29.88,6,1,0,0.00
2012-8-18,64,60,56,60,58,55,97,94,86,29.96,29.84,14,2,0,0.05
2012-8-19,67,60,54,59,56,52,98,85,66,30.02,29.92,10,2,0,0.00
2012-8-20,61,56,50,55,53,48,97,92,79,30.03,29.96,7,2,0,0.00
2012-8-21,65,56,50,58,53,49,99,91,71,30.04,29.94,6,1,0,0.00
2012-8-22,65,59,52,56,53,50,95,82,67,30.09,30.05,12,1,0,0.00
2012-8-23,66,60,54,53,52,49,89,75,56,30.10,30.07,9,2,0,0.07
2012-8-24,61,56,48,54,52,46,93,85,73,30.16,30.01,8,1,0,0.00
2012-8-25,67,55,46,54,50,44,96,85,63,30.00,29.72,11,2,0,0.00
2012-8-26,61,56,52,56,53,49,94,89,78,29.89,29.71,7,1,0,0.03
2012-8-27,63,56,50,55,53,48,95,88,73,30.03,29.89,9,1,0,0.00
2012-8-28,64,57,50,57,53,48,96,89,73,30.03,29.98,11,1,0,0.03
2012-8-29,61,56,52,58,54,51,97,94,87,30.10,30.04,7,1,0,0.02
2012-8-30,63,57,50,57,52,47,98,84,68,29.99,29.91,11,2,0,0.01
2012-8-31,63,53,47,54,50,45,96,88,71,29.99,29.91,13,2,0,0.00
2012-9-1,64,55,46,54,50,45,97,84,64,30.14,29.99,13,2,0,0.00
2012-9-2,65,29,52,56,-23,-100,93,42,71,30.17,30.12,10,-498,0,0.00
2012-9-3,58,23,52,54,-35,-100,97,40,84,30.17,30.11,6,-573,0,0.00
2012-9-4,63,30,47,55,-20,-100,98,46,73,30.19,30.09,4,-473,0,0.00
2012-9-5,60,30,48,54,-17,-100,97,48,81,30.08,29.92,5,-456,0,0.00
2012-9-6,73,34,50,55,-16,-100,98,39,45,30.03,29.93,4,-450,0,0.00
2012-9-7,72,33,51,54,-19,-100,91,37,51,30.10,30.00,6,-467,0,0.00
2012-9-8,69,30,50,60,-23,-100,94,42,72,30.00,29.91,10,-498,0,0.00
2012-9-9,63,21,56,57,-45,-100,93,30,75,29.95,29.88,9,-645,0,0.00
2012-9-10,64,31,50,55,-22,-100,97,37,55,30.21,29.96,9,-477,0,0.02
2012-9-11,59,28,45,52,-25,-100,96,41,66,30.31,30.21,12,-498,0,0.00
2012-9-12,68,32,43,49,-21,-100,98,34,41,30.34,30.21,12,-460,0,0.01
2012-9-13,72,33,59,51,-26,-100,71,26,39,30.21,30.03,15,-492,0,0.00
2012-9-14,63,29,45,54,-24,-100,94,39,69,30.07,30.00,4,-499,0,0.00
2012-9-15,65,28,50,56,-25,-100,96,42,71,30.16,30.03,7,-509,0,0.00
2012-9-16,64,28,46,55,-25,-100,97,41,68,30.20,30.08,4,-504,0,0.00
2012-9-17,76,31,48,54,-24,-100,93,36,43,30.09,29.97,6,-499,0,0.00
2012-9-18,63,29,51,53,-25,-100,93,38,67,30.06,29.96,8,-504,0,0.00
2012-9-19,56,18,52,54,-49,-100,96,31,89,30.14,30.06,6,-665,0,0.00
2012-9-20,56,20,50,53,-43,-100,99,35,90,30.09,30.02,10,-626,0,0.00
2012-9-21,-200,0,200,-100,-100,-100,0,0,100,30.11,30.08,0,-999,0,0.00
2012-9-22,63,29,50,52,-27,-100,95,35,60,30.13,30.09,11,-510,0,0.00
2012-9-23,62,25,43,52,-32,-100,96,36,70,30.14,30.09,9,-546,0,0.00
2012-9-24,58,30,51,56,-15,-100,95,51,88,30.13,30.09,5,-442,0,0.00
2012-9-25,60,23,45,53,-36,-100,98,37,75,30.12,30.09,7,-575,0,0.00
2012-9-26,53,20,49,51,-43,-100,98,36,90,30.11,30.04,5,-614,0,0.00
2012-9-27,60,26,44,51,-28,-100,97,40,73,30.06,29.91,3,-520,0,0.00
2012-9-28,62,23,53,59,-38,-100,96,37,86,30.05,29.90,5,-599,0,0.00
2012-9-29,58,25,49,52,-29,-100,96,42,81,30.29,30.05,9,-530,0,0.00
2012-9-30,58,22,41,52,-33,-100,98,41,79,30.39,30.29,4,-548,0,0.00
2012-10-1,64,27,48,60,-28,-100,96,41,83,30.34,30.15,9,-531,0,0.00
2012-10-2,54,20,49,51,-41,-100,98,36,82,30.29,30.15,7,-603,0,0.00
2012-10-3,62,27,51,40,-36,-100,63,22,37,30.38,30.26,13,-528,0,0.00
2012-10-4,64,27,39,43,-37,-100,94,22,34,30.28,30.22,11,-540,0,0.00
2012-10-5,65,35,51,41,-20,-100,66,25,34,30.26,30.18,13,-420,0,0.00
2012-10-6,68,58,45,43,40,36,85,56,31,30.19,30.08,10,4,0,0.00
2012-10-7,62,51,43,48,44,39,89,78,60,30.09,29.89,7,3,0,0.00
2012-10-8,60,50,43,51,46,41,96,87,63,30.00,29.89,8,3,0,0.00
2012-10-9,58,52,44,50,48,43,96,89,75,30.09,30.01,9,1,0,0.00
2012-10-10,54,48,42,49,46,41,96,90,77,30.01,29.95,9,1,0,0.00
2012-10-11,51,49,47,48,47,46,95,92,86,29.98,29.78,6,1,0,0.00
2012-10-12,53,51,49,52,50,47,98,96,92,29.90,29.76,5,1,0,0.35
2012-10-13,60,56,51,58,54,50,99,96,90,30.02,29.90,14,2,0,1.44
2012-10-14,60,58,52,58,56,51,97,92,83,29.96,29.74,16,3,0,1.72
2012-10-15,60,52,48,60,52,48,100,97,89,29.88,29.42,9,1,0,1.01
2012-10-16,57,51,46,52,48,44,95,88,73,30.25,29.58,6,1,0,0.11
2012-10-17,53,49,46,49,46,44,95,90,81,30.27,30.16,6,1,0,0.00
2012-10-18,58,50,48,56,48,46,99,92,85,30.17,29.66,14,2,0,1.18
2012-10-19,56,50,44,49,46,42,96,85,70,29.81,29.73,5,1,0,0.58
2012-10-20,45,42,40,43,41,38,96,94,87,29.81,29.77,3,0,0,0.05
2012-10-21,47,43,38,43,40,36,97,89,80,29.81,29.73,11,3,0,0.07
2012-10-22,47,45,43,43,41,39,93,87,75,29.73,29.53,11,4,0,0.11
2012-10-23,47,44,42,44,43,41,95,92,87,29.80,29.58,10,2,0,0.20
2012-10-24,48,46,44,45,44,42,95,92,88,30.13,29.79,7,1,0,0.11
2012-10-25,50,46,42,46,44,40,95,90,83,30.36,30.14,10,2,0,0.00
2012-10-26,48,47,46,46,45,43,97,93,86,30.27,29.95,15,4,0,0.47
2012-10-27,56,49,47,56,48,46,99,98,96,29.96,29.66,6,2,0,1.05
2012-10-28,54,51,50,52,50,49,98,96,94,29.91,29.70,6,0,0,0.13
2012-10-29,56,54,50,55,52,49,99,94,91,29.93,29.64,17,2,0,0.98
2012-10-30,57,53,50,54,52,50,98,96,91,29.87,29.66,8,2,0,2.29
2012-10-31,57,54,52,55,53,51,99,96,87,29.68,29.51,13,1,0,1.36
2012-11-1,54,52,51,54,52,50,99,98,96,29.93,29.64,4,0,0,0.35
2012-11-2,55,53,51,53,52,51,99,96,93,29.96,29.85,5,1,0,0.21
2012-11-3,58,54,52,56,53,51,99,95,91,30.11,29.85,7,1,0,0.40
2012-11-4,61,54,51,58,53,50,98,96,90,30.29,30.04,12,2,0,0.66
2012-11-5,55,50,46,51,48,45,100,93,83,30.38,30.13,6,1,0,0.00
2012-11-6,56,50,44,53,47,42,96,91,84,30.13,29.83,13,3,0,0.24
2012-11-7,52,45,42,47,43,41,97,92,79,30.09,29.90,10,1,0,0.33
2012-11-8,51,44,34,44,39,33,98,84,61,29.89,29.83,13,5,0,0.00
2012-11-9,47,40,32,37,34,30,97,79,59,29.95,29.84,10,3,0,0.01
2012-11-10,45,40,38,34,29,26,84,64,53,30.16,29.96,12,3,0,0.00
2012-11-11,45,41,39,44,37,28,96,86,64,30.16,29.95,17,6,0,2.24
2012-11-12,50,47,43,49,46,42,98,96,92,30.14,29.96,8,1,0,0.15
2012-11-13,49,47,46,48,46,45,99,97,96,30.16,30.09,8,1,0,0.32
2012-11-14,52,46,40,49,44,39,99,95,89,30.29,30.16,5,1,0,0.00
2012-11-15,47,45,42,45,43,40,95,90,82,30.25,29.91,13,4,0,0.01
2012-11-16,48,45,42,45,42,40,95,89,81,29.91,29.56,11,4,0,0.06
2012-11-17,49,46,43,48,44,41,95,92,84,29.56,29.35,14,1,0,1.15
2012-11-18,51,46,43,48,44,41,96,93,87,29.62,29.29,11,2,0,1.10
2012-11-19,52,48,45,49,46,45,97,95,89,29.59,29.28,7,2,0,0.84
2012-11-20,49,45,42,47,44,40,96,93,85,29.59,29.36,12,3,0,0.93
2012-11-21,45,41,38,43,40,37,97,95,93,30.22,29.49,7,1,0,0.96
2012-11-22,46,43,38,43,41,37,97,91,86,30.28,30.03,14,4,0,0.04
2012-11-23,53,49,42,50,47,41,98,94,90,30.10,29.95,11,1,0,0.51
2012-11-24,52,42,34,47,40,33,98,94,80,30.25,30.10,5,2,0,0.14
2012-11-25,47,41,33,43,38,32,98,88,77,30.32,30.21,15,5,0,0.01
2012-11-26,44,43,40,39,38,36,87,82,78,30.21,30.02,17,8,0,0.00
2012-11-27,48,43,40,41,39,37,88,86,77,30.05,29.87,11,4,0,0.00
2012-11-28,48,45,42,47,42,37,97,89,76,29.87,29.50,20,6,0,0.37
2012-11-29,54,50,47,50,48,46,97,93,85,29.58,29.32,12,3,0,0.73
2012-11-30,53,49,47,50,48,46,97,94,86,29.32,29.23,10,2,0,1.30
2012-12-1,52,49,45,48,46,44,97,91,86,29.46,29.24,15,3,0,0.87